Terminal Aerodrome Forecast
Issued by NWS

Home | Current Version | Previous Version | Text Only | Print | Product List | Glossary Off
Versions: 1 2 3 4 5 6 7 8 9 10 11 12 13 14

000
FTUS43 KMPX 302300
TAFRWF
TAF
KRWF 302320Z 3100/3124 28004KT P6SM BKN015
     FM310100 VRB03KT P6SM SCT025
     FM310800 16010KT P6SM SCT015 BKN200
     FM311700 16015G24KT P6SM VCSH SCT050 BKN110
     FM312100 19017G24KT P6SM VCTS SCT050CB BKN080=

USA.gov is the U.S. government's official web portal to all federal, state and local government web resources and services.